Flight Track Log - Related Links

Times and Time Zones

All times are in EDT time to prevent confusion due to time zone crossing. See the UAL708 flight status page for this flight to view local times or setup timezone preferences in your user account.

Time Position Orientation Groundspeed Altitude Reporting Facility
EDT Latitude Longitude Course Direction KTS MPH feet Rate Location/Type
Sun 01:14:27 PM 33.9489 -118.4786 270° West 150 173 34,000  Level Los Angeles Center
Sun 01:15:29 PM 33.9286 -118.5164 237° Southwest 231 266 3,300 -13,452 Descending Los Angeles Center
Sun 01:16:31 PM 33.9208 -118.6144 265° West 271 312 6,200 2,613 Climbing Los Angeles Center
Sun 01:17:00 PM 33.8797 -118.9441 264° West  Level FlightAware Approximate
Sun 01:17:33 PM 33.9114 -118.7078 263° West 281 323 8,700  Level Los Angeles Center
Sun 01:18:00 PM 33.8682 -119.0821 264° West  Level FlightAware Approximate
Sun 01:18:35 PM 33.9017 -118.8019 263° West 295 339 10,500  Level Los Angeles Center
Sun 01:19:00 PM 33.8500 -119.2187 270° West  Level FlightAware Approximate
Sun 01:19:37 PM 33.8900 -118.9153 263° West 346 398 12,200  Level Los Angeles Center
Sun 01:20:39 PM 33.8906 -119.0367 270° West 366 421 14,400 2,226 Climbing Los Angeles Center
Sun 01:21:41 PM 33.8961 -119.1867 273° West 377 434 16,800 1,935 Climbing Los Angeles Center
Sun 01:22:43 PM 33.8997 -119.3178 272° West 393 452 18,400 1,645 Climbing Los Angeles Center
Sun 01:23:45 PM 33.9028 -119.4517 272° West 405 466 20,200 1,742 Climbing Los Angeles Center
Sun 01:24:47 PM 33.9072 -119.5903 272° West 415 478 22,000 1,584 Climbing Los Angeles Center
Sun 01:25:50 PM 33.9103 -119.7289 272° West 418 481 23,500 1,344 Climbing Los Angeles Center
Sun 01:26:52 PM 33.9106 -119.8719 270° West 428 493 24,800 1,548 Climbing Los Angeles Center
Sun 01:27:54 PM 33.9142 -120.0475 271° West 436 502 26,700 1,452 Climbing Los Angeles Center
Sun 01:28:56 PM 33.9214 -120.1919 273° West 436 502 27,800 1,065 Climbing Los Angeles Center
Sun 01:29:58 PM 33.9225 -120.3439 271° West 442 509 28,900 1,258 Climbing Los Angeles Center
Sun 01:31:00 PM 33.9253 -120.4975 271° West 449 517 30,400 1,355 Climbing Los Angeles Center
Sun 01:32:02 PM 33.9272 -120.6469 271° West 449 517 31,700 1,161 Climbing Los Angeles Center
Sun 01:33:04 PM 33.9289 -120.7908 271° West 439 505 32,800 1,113 Climbing Los Angeles Center
Sun 01:34:06 PM 33.9300 -120.9669 270° West 436 502 34,000 581 Climbing Los Angeles Center
Sun 01:35:08 PM 33.9328 -121.1128 271° West 435 501 34,000  Level Los Angeles Center
Sun 01:36:10 PM 33.9339 -121.2569 271° West 431 496 34,000  Level Los Angeles Center
Sun 01:37:12 PM 33.9356 -121.4031 271° West 434 499 34,000  Level Los Angeles Center
Sun 01:38:15 PM 33.9369 -121.5503 271° West 438 504 34,000  Level Los Angeles Center
Sun 01:39:17 PM 33.9375 -121.6961 270° West 436 502 34,000  Level Los Angeles Center
Sun 01:40:19 PM 33.9364 -121.8431 270° West 437 503 34,000  Level Los Angeles Center
Sun 01:41:21 PM 33.9367 -122.0189 270° West 437 503 34,000  Level Los Angeles Center
Sun 01:42:23 PM 33.9381 -122.1647 271° West 436 502 34,000  Level Los Angeles Center
Sun 01:43:25 PM 33.9389 -122.3089 270° West 431 496 34,000  Level Los Angeles Center
Sun 01:44:26 PM 33.9414 -122.4253 272° West 434 499 34,000  Level Los Angeles Center
Sun 01:45:29 PM 33.9417 -122.5967 270° West 430 495 34,000  Level Los Angeles Center
Sun 01:46:31 PM 33.9406 -122.7386 269° West 427 491 34,000  Level Los Angeles Center
Sun 01:47:33 PM 33.9400 -122.9089 270° West 424 488 34,000  Level Los Angeles Center
Sun 01:49:00 PM 33.9390 -123.1131 270° West  Level FlightAware Approximate
Sun 01:56:00 PM 33.9295 -124.0990 270° West  Level FlightAware Approximate
Sun 01:57:00 PM 33.9275 -124.2398 269° West  Level FlightAware Approximate
Sun 01:58:00 PM 33.9254 -124.3806 269° West  Level FlightAware Approximate
Sun 01:59:00 PM 33.9230 -124.5214 269° West  Level FlightAware Approximate
Sun 02:00:00 PM 33.9206 -124.6622 269° West  Level FlightAware Approximate
Sun 02:01:00 PM 33.9179 -124.8029 269° West  Level FlightAware Approximate
Sun 02:02:00 PM 33.9156 -124.9436 267° West  Level FlightAware Approximate
Sun 02:03:00 PM 33.9100 -125.0843 267° West  Level FlightAware Approximate
Sun 02:03:33 PM 33.9167 -124.9333 267° West 444 511 34,000  Level Oakland Oceanic (ODAPS)
Sun 02:04:00 PM 33.9043 -125.2225 267° West  Level FlightAware Approximate
Sun 02:05:00 PM 33.8984 -125.3607 267° West  Level FlightAware Approximate
Sun 02:06:00 PM 33.8925 -125.4989 267° West  Level FlightAware Approximate
Sun 02:07:00 PM 33.8862 -125.6401 267° West  Level FlightAware Approximate
Sun 02:08:00 PM 33.8797 -125.7812 267° West  Level FlightAware Approximate
Sun 02:09:00 PM 33.8666 -126.1174 267° West 444 511 34,000  Level FlightAware Transoceanic
Sun 02:10:00 PM 33.8595 -126.2653 267° West 444 511 34,000  Level FlightAware Transoceanic
Sun 02:11:00 PM 33.8522 -126.4131 267° West 444 511 34,000  Level FlightAware Transoceanic
Sun 02:12:00 PM 33.8448 -126.5610 267° West 444 511 34,000  Level FlightAware Transoceanic
Sun 02:13:00 PM 33.8372 -126.7088 266° West 444 511 34,000  Level FlightAware Transoceanic
Sun 02:14:00 PM 33.8295 -126.8566 266° West 444 511 34,000  Level FlightAware Transoceanic
Sun 02:15:00 PM 33.8215 -127.0044 266° West 444 511 34,000  Level FlightAware Transoceanic
Sun 02:16:00 PM 33.8134 -127.1522 266° West 444 511 34,000  Level FlightAware Transoceanic
Sun 02:17:00 PM 33.8051 -127.2999 266° West 444 511 34,000  Level FlightAware Transoceanic
Sun 02:18:00 PM 33.7966 -127.4476 266° West 444 511 34,000  Level FlightAware Transoceanic
Sun 02:19:00 PM 33.7880 -127.5952 266° West 444 511 34,000  Level FlightAware Transoceanic
Sun 02:20:00 PM 33.7792 -127.7428 266° West 444 511 34,000  Level FlightAware Transoceanic
Sun 02:21:00 PM 33.7702 -127.8904 266° West 444 511 34,000  Level FlightAware Transoceanic
Sun 02:22:00 PM 33.7610 -128.0380 266° West 444 511 34,000  Level FlightAware Transoceanic
Sun 02:23:00 PM 33.7517 -128.1855 266° West 444 511 34,000  Level FlightAware Transoceanic
Sun 02:24:00 PM 33.7421 -128.3330 266° West 444 511 34,000  Level FlightAware Transoceanic
Sun 02:25:00 PM 33.7324 -128.4805 265° West 444 511 34,000  Level FlightAware Transoceanic
Sun 02:26:00 PM 33.7225 -128.6279 265° West 444 511 34,000  Level FlightAware Transoceanic
Sun 02:27:00 PM 33.7125 -128.7753 265° West 444 511 34,000  Level FlightAware Transoceanic
Sun 02:28:00 PM 33.7023 -128.9227 265° West 444 511 34,000  Level FlightAware Transoceanic
Sun 02:29:00 PM 33.6919 -129.0701 265° West 444 511 34,000  Level FlightAware Transoceanic
Sun 02:30:00 PM 33.6813 -129.2173 265° West 444 511 34,000  Level FlightAware Transoceanic
Sun 02:31:00 PM 33.6705 -129.3646 265° West 444 511 34,000  Level FlightAware Transoceanic
Sun 02:32:00 PM 33.6596 -129.5118 265° West 444 511 34,000  Level FlightAware Transoceanic
Sun 02:33:00 PM 33.6485 -129.6590 265° West 444 511 34,000  Level FlightAware Transoceanic
Sun 02:34:00 PM 33.6372 -129.8062 265° West 444 511 34,000  Level FlightAware Transoceanic
Sun 02:35:00 PM 33.6258 -129.9532 265° West 444 511 34,000  Level FlightAware Transoceanic
Sun 02:36:00 PM 33.6142 -130.1003 265° West 444 511 34,000  Level FlightAware Transoceanic
Sun 02:37:00 PM 33.6024 -130.2473 264° West 444 511 34,000  Level FlightAware Transoceanic
Sun 02:38:00 PM 33.5904 -130.3943 264° West 444 511 34,000  Level FlightAware Transoceanic
Sun 02:39:00 PM 33.5783 -130.5413 264° West 444 511 34,000  Level FlightAware Transoceanic
Sun 02:40:00 PM 33.5659 -130.6882 264° West 444 511 34,000  Level FlightAware Transoceanic
Sun 02:41:00 PM 33.5535 -130.8351 264° West 444 511 34,000  Level FlightAware Transoceanic
Sun 02:42:00 PM 33.5408 -130.9819 264° West 444 511 34,000  Level FlightAware Transoceanic
Sun 02:43:00 PM 33.5279 -131.1286 264° West 444 511 34,000  Level FlightAware Transoceanic
Sun 02:44:00 PM 33.5149 -131.2754 264° West 444 511 34,000  Level FlightAware Transoceanic
Sun 02:45:00 PM 33.5018 -131.4221 264° West 444 511 34,000  Level FlightAware Transoceanic
Sun 02:46:00 PM 33.4884 -131.5687 264° West 444 511 34,000  Level FlightAware Transoceanic
Sun 02:47:00 PM 33.4749 -131.7153 264° West 444 511 34,000  Level FlightAware Transoceanic
Sun 02:48:00 PM 33.4612 -131.8618 264° West 444 511 34,000  Level FlightAware Transoceanic
Sun 02:49:00 PM 33.4473 -132.0083 263° West 444 511 34,000  Level FlightAware Transoceanic
Sun 02:50:00 PM 33.4332 -132.1548 263° West 444 511 34,000  Level FlightAware Transoceanic
Sun 02:51:00 PM 33.4190 -132.3012 263° West 444 511 34,000  Level FlightAware Transoceanic
Sun 02:52:00 PM 33.4046 -132.4476 263° West 444 511 34,000  Level FlightAware Transoceanic
Sun 02:53:00 PM 33.3901 -132.5939 263° West 444 511 34,000  Level FlightAware Transoceanic
Sun 02:54:00 PM 33.3753 -132.7401 263° West 444 511 34,000  Level FlightAware Transoceanic
Sun 02:55:00 PM 33.3604 -132.8864 263° West 444 511 34,000  Level FlightAware Transoceanic
Sun 02:56:00 PM 33.3453 -133.0325 263° West 444 511 34,000  Level FlightAware Transoceanic
Sun 02:57:00 PM 33.3301 -133.1786 263° West 444 511 34,000  Level FlightAware Transoceanic
Sun 02:58:00 PM 33.3147 -133.3247 263° West 444 511 34,000  Level FlightAware Transoceanic
Sun 02:59:00 PM 33.2991 -133.4707 263° West 444 511 34,000  Level FlightAware Transoceanic
Sun 03:00:00 PM 33.2833 -133.6167 254° West 444 511 34,000  Level FlightAware Transoceanic
Sun 03:01:00 PM 33.2494 -133.7592 254° West 444 511 34,000  Level FlightAware Transoceanic
Sun 03:02:00 PM 33.2152 -133.9016 254° West 444 511 34,000  Level FlightAware Transoceanic
Sun 03:03:00 PM 33.1810 -134.0439 254° West 444 511 34,000  Level FlightAware Transoceanic
Sun 03:04:00 PM 33.1465 -134.1860 254° West 444 511 34,000  Level FlightAware Transoceanic
Sun 03:05:00 PM 33.1119 -134.3281 254° West 444 511 34,000  Level FlightAware Transoceanic
Sun 03:06:00 PM 33.0771 -134.4700 254° West 444 511 34,000  Level FlightAware Transoceanic
Sun 03:07:00 PM 33.0422 -134.6119 254° West 444 511 34,000  Level FlightAware Transoceanic
Sun 03:07:55 PM 33.2833 -133.6167 254° West 463 533 34,000  Level Oakland Oceanic (ODAPS)
Sun 03:08:00 PM 33.0071 -134.7536 254° West 444 511 34,000  Level FlightAware Transoceanic
Sun 03:09:00 PM 32.9719 -134.8952 253° West 444 511 34,000  Level FlightAware Transoceanic
Sun 03:10:00 PM 32.9364 -135.0367 253° West 444 511 34,000  Level FlightAware Transoceanic
Sun 03:11:00 PM 32.9009 -135.1781 253° West 444 511 34,000  Level FlightAware Transoceanic
Sun 03:12:00 PM 32.8651 -135.3194 253° West 444 511 34,000  Level FlightAware Transoceanic
Sun 03:13:00 PM 32.8293 -135.4605 253° West 444 511 34,000  Level FlightAware Transoceanic
Sun 03:14:00 PM 32.7741 -135.6761 253° West 463 533 34,000  Level FlightAware Transoceanic
Sun 03:15:00 PM 32.7364 -135.8222 253° West 463 533 34,000  Level FlightAware Transoceanic
Sun 03:16:00 PM 32.6986 -135.9683 253° West 463 533 34,000  Level FlightAware Transoceanic
Sun 03:17:00 PM 32.6606 -136.1142 253° West 463 533 34,000  Level FlightAware Transoceanic
Sun 03:18:00 PM 32.6224 -136.2600 253° West 463 533 34,000  Level FlightAware Transoceanic
Sun 03:19:00 PM 32.5841 -136.4057 253° West 463 533 34,000  Level FlightAware Transoceanic
Sun 03:20:00 PM 32.5456 -136.5513 253° West 463 533 34,000  Level FlightAware Transoceanic
Sun 03:21:00 PM 32.5069 -136.6967 252° West 463 533 34,000  Level FlightAware Transoceanic
Sun 03:22:00 PM 32.4681 -136.8420 252° West 463 533 34,000  Level FlightAware Transoceanic
Sun 03:23:00 PM 32.4291 -136.9872 252° West 463 533 34,000  Level FlightAware Transoceanic
Sun 03:24:00 PM 32.3899 -137.1323 252° West 463 533 34,000  Level FlightAware Transoceanic
Sun 03:25:00 PM 32.3506 -137.2772 252° West 463 533 34,000  Level FlightAware Transoceanic
Sun 03:26:00 PM 32.3111 -137.4220 252° West 463 533 34,000  Level FlightAware Transoceanic
Sun 03:27:00 PM 32.2714 -137.5667 252° West 463 533 34,000  Level FlightAware Transoceanic
Sun 03:28:00 PM 32.2316 -137.7112 252° West 463 533 34,000  Level FlightAware Transoceanic
Sun 03:29:00 PM 32.1916 -137.8557 252° West 463 533 34,000  Level FlightAware Transoceanic
Sun 03:30:00 PM 32.1514 -138.0000 252° West 463 533 34,000  Level FlightAware Transoceanic
Sun 03:31:00 PM 32.1111 -138.1441 252° West 463 533 34,000  Level FlightAware Transoceanic
Sun 03:32:00 PM 32.0706 -138.2882 252° West 463 533 34,000  Level FlightAware Transoceanic
Sun 03:33:00 PM 32.0299 -138.4321 252° West 463 533 34,000  Level FlightAware Transoceanic
Sun 03:34:00 PM 31.9891 -138.5759 251° West 463 533 34,000  Level FlightAware Transoceanic
Sun 03:35:00 PM 31.9481 -138.7195 251° West 463 533 34,000  Level FlightAware Transoceanic
Sun 03:36:00 PM 31.9070 -138.8631 251° West 463 533 34,000  Level FlightAware Transoceanic
Sun 03:37:00 PM 31.8657 -139.0065 251° West 463 533 34,000  Level FlightAware Transoceanic
Sun 03:38:00 PM 31.8242 -139.1498 251° West 463 533 34,000  Level FlightAware Transoceanic
Sun 03:39:00 PM 31.7826 -139.2929 251° West 463 533 34,000  Level FlightAware Transoceanic
Sun 03:40:00 PM 31.7409 -139.4359 251° West 463 533 34,000  Level FlightAware Transoceanic
Sun 03:41:00 PM 31.6989 -139.5788 251° West 463 533 34,000  Level FlightAware Transoceanic
Sun 03:42:00 PM 31.6568 -139.7216 251° West 463 533 34,000  Level FlightAware Transoceanic
Sun 03:43:00 PM 31.6145 -139.8642 251° West 463 533 34,000  Level FlightAware Transoceanic
Sun 03:44:00 PM 31.5721 -140.0067 251° West 463 533 34,000  Level FlightAware Transoceanic
Sun 03:45:00 PM 31.5296 -140.1491 251° West 463 533 34,000  Level FlightAware Transoceanic
Sun 03:46:00 PM 31.4868 -140.2913 251° West 463 533 34,000  Level FlightAware Transoceanic
Sun 03:47:00 PM 31.4439 -140.4334 250° West 463 533 34,000  Level FlightAware Transoceanic
Sun 03:48:00 PM 31.4009 -140.5754 250° West 463 533 34,000  Level FlightAware Transoceanic
Sun 03:49:00 PM 31.3577 -140.7173 250° West 463 533 34,000  Level FlightAware Transoceanic
Sun 03:50:00 PM 31.3143 -140.8590 250° West 463 533 34,000  Level FlightAware Transoceanic
Sun 03:51:00 PM 31.2708 -141.0005 250° West 463 533 34,000  Level FlightAware Transoceanic
Sun 03:52:00 PM 31.2272 -141.1420 250° West 463 533 34,000  Level FlightAware Transoceanic
Sun 03:53:00 PM 31.1833 -141.2833 242° Southwest 463 533 34,000  Level FlightAware Transoceanic
Sun 03:54:00 PM 31.1267 -141.4088 242° Southwest 463 533 34,000  Level FlightAware Transoceanic
Sun 03:55:00 PM 31.0700 -141.5341 242° Southwest 463 533 34,000  Level FlightAware Transoceanic
Sun 03:56:00 PM 31.0131 -141.6592 242° Southwest 463 533 34,000  Level FlightAware Transoceanic
Sun 03:56:49 PM 31.1833 -141.2833 242° Southwest 421 484 34,000  Level Oakland Oceanic (ODAPS)
Sun 03:57:00 PM 30.9562 -141.7842 242° Southwest 463 533 34,000  Level FlightAware Transoceanic
Sun 03:58:00 PM 30.8991 -141.9091 242° Southwest 463 533 34,000  Level FlightAware Transoceanic
Sun 03:59:00 PM 30.8418 -142.0338 242° Southwest 463 533 34,000  Level FlightAware Transoceanic
Sun 04:00:00 PM 30.7845 -142.1584 242° Southwest 463 533 34,000  Level FlightAware Transoceanic
Sun 04:01:00 PM 30.7271 -142.2828 242° Southwest 463 533 34,000  Level FlightAware Transoceanic
Sun 04:02:00 PM 30.6695 -142.4070 242° Southwest 463 533 34,000  Level FlightAware Transoceanic
Sun 04:03:00 PM 30.6877 -142.3678 242° Southwest 421 484 34,000  Level FlightAware Transoceanic
Sun 04:04:00 PM 30.6320 -142.4876 242° Southwest 421 484 34,000  Level FlightAware Transoceanic
Sun 04:05:00 PM 30.5763 -142.6073 242° Southwest 421 484 34,000  Level FlightAware Transoceanic
Sun 04:06:00 PM 30.5205 -142.7268 241° Southwest 421 484 34,000  Level FlightAware Transoceanic
Sun 04:07:00 PM 30.4645 -142.8462 241° Southwest 421 484 34,000  Level FlightAware Transoceanic
Sun 04:08:00 PM 30.4084 -142.9655 241° Southwest 421 484 34,000  Level FlightAware Transoceanic
Sun 04:09:00 PM 30.3523 -143.0846 241° Southwest 421 484 34,000  Level FlightAware Transoceanic
Sun 04:10:00 PM 30.2960 -143.2036 241° Southwest 421 484 34,000  Level FlightAware Transoceanic
Sun 04:11:00 PM 30.2396 -143.3224 241° Southwest 421 484 34,000  Level FlightAware Transoceanic
Sun 04:12:00 PM 30.1831 -143.4411 241° Southwest 421 484 34,000  Level FlightAware Transoceanic
Sun 04:13:00 PM 30.1265 -143.5597 241° Southwest 421 484 34,000  Level FlightAware Transoceanic
Sun 04:14:00 PM 30.0698 -143.6781 241° Southwest 421 484 34,000  Level FlightAware Transoceanic
Sun 04:15:00 PM 30.0130 -143.7964 241° Southwest 421 484 34,000  Level FlightAware Transoceanic
Sun 04:16:00 PM 29.9560 -143.9146 241° Southwest 421 484 34,000  Level FlightAware Transoceanic
Sun 04:17:00 PM 29.8990 -144.0326 241° Southwest 421 484 34,000  Level FlightAware Transoceanic
Sun 04:18:00 PM 29.8419 -144.1505 241° Southwest 421 484 34,000  Level FlightAware Transoceanic
Sun 04:19:00 PM 29.7846 -144.2682 241° Southwest 421 484 34,000  Level FlightAware Transoceanic
Sun 04:20:00 PM 29.7273 -144.3859 241° Southwest 421 484 34,000  Level FlightAware Transoceanic
Sun 04:21:00 PM 29.6699 -144.5034 241° Southwest 421 484 34,000  Level FlightAware Transoceanic
Sun 04:22:00 PM 29.6123 -144.6207 241° Southwest 421 484 34,000  Level FlightAware Transoceanic
Sun 04:23:00 PM 29.5547 -144.7379 240° Southwest 421 484 34,000  Level FlightAware Transoceanic
Sun 04:24:00 PM 29.4969 -144.8550 240° Southwest 421 484 34,000  Level FlightAware Transoceanic
Sun 04:25:00 PM 29.4391 -144.9720 240° Southwest 421 484 34,000  Level FlightAware Transoceanic
Sun 04:26:00 PM 29.3811 -145.0888 240° Southwest 421 484 34,000  Level FlightAware Transoceanic
Sun 04:27:00 PM 29.3230 -145.2055 240° Southwest 421 484 34,000  Level FlightAware Transoceanic
Sun 04:28:00 PM 29.2649 -145.3220 240° Southwest 421 484 34,000  Level FlightAware Transoceanic
Sun 04:29:00 PM 29.2066 -145.4385 240° Southwest 421 484 34,000  Level FlightAware Transoceanic
Sun 04:30:00 PM 29.1483 -145.5547 240° Southwest 421 484 34,000  Level FlightAware Transoceanic
Sun 04:31:00 PM 29.0898 -145.6709 240° Southwest 421 484 34,000  Level FlightAware Transoceanic
Sun 04:32:00 PM 29.0312 -145.7869 240° Southwest 421 484 34,000  Level FlightAware Transoceanic
Sun 04:33:00 PM 28.9726 -145.9028 240° Southwest 421 484 34,000  Level FlightAware Transoceanic
Sun 04:34:00 PM 28.9138 -146.0186 240° Southwest 421 484 34,000  Level FlightAware Transoceanic
Sun 04:35:00 PM 28.8549 -146.1342 240° Southwest 421 484 34,000  Level FlightAware Transoceanic
Sun 04:36:00 PM 28.7960 -146.2497 240° Southwest 421 484 34,000  Level FlightAware Transoceanic
Sun 04:37:00 PM 28.7369 -146.3651 240° Southwest 421 484 34,000  Level FlightAware Transoceanic
Sun 04:38:00 PM 28.6778 -146.4803 240° Southwest 421 484 34,000  Level FlightAware Transoceanic
Sun 04:39:00 PM 28.6185 -146.5954 240° Southwest 421 484 34,000  Level FlightAware Transoceanic
Sun 04:40:00 PM 28.5592 -146.7104 240° Southwest 421 484 34,000  Level FlightAware Transoceanic
Sun 04:41:00 PM 28.4997 -146.8253 239° Southwest 421 484 34,000  Level FlightAware Transoceanic
Sun 04:42:00 PM 28.4402 -146.9400 239° Southwest 421 484 34,000  Level FlightAware Transoceanic
Sun 04:43:00 PM 28.3805 -147.0546 239° Southwest 421 484 34,000  Level FlightAware Transoceanic
Sun 04:44:00 PM 28.3208 -147.1690 239° Southwest 421 484 34,000  Level FlightAware Transoceanic
Sun 04:45:00 PM 28.2610 -147.2834 239° Southwest 421 484 34,000  Level FlightAware Transoceanic
Sun 04:46:00 PM 28.2010 -147.3976 239° Southwest 421 484 34,000  Level FlightAware Transoceanic
Sun 04:47:00 PM 28.1410 -147.5116 239° Southwest 421 484 34,000  Level FlightAware Transoceanic
Sun 04:48:00 PM 28.0809 -147.6256 239° Southwest 421 484 34,000  Level FlightAware Transoceanic
Sun 04:49:00 PM 28.0207 -147.7394 239° Southwest 421 484 34,000  Level FlightAware Transoceanic
Sun 04:50:00 PM 27.9604 -147.8531 239° Southwest 421 484 34,000  Level FlightAware Transoceanic
Sun 04:51:00 PM 27.9000 -147.9667 239° Southwest 421 484 34,000  Level FlightAware Transoceanic
Sun 04:51:07 PM 27.9000 -147.9667 239° Southwest 422 486 34,000  Level Oakland Oceanic (ODAPS)
Sun 04:52:00 PM 27.8403 -148.0784 239° Southwest 421 484 34,000  Level FlightAware Transoceanic
Sun 04:53:00 PM 27.7806 -148.1899 239° Southwest 421 484 34,000  Level FlightAware Transoceanic
Sun 04:54:00 PM 27.7207 -148.3014 239° Southwest 421 484 34,000  Level FlightAware Transoceanic
Sun 04:55:00 PM 27.6607 -148.4127 239° Southwest 421 484 34,000  Level FlightAware Transoceanic
Sun 04:56:00 PM 27.6007 -148.5239 239° Southwest 421 484 34,000  Level FlightAware Transoceanic
Sun 04:57:00 PM 27.4116 -148.8723 238° Southwest 422 486 34,000  Level FlightAware Transoceanic
Sun 04:58:00 PM 27.3501 -148.9849 238° Southwest 422 486 34,000  Level FlightAware Transoceanic
Sun 04:59:00 PM 27.2886 -149.0974 238° Southwest 422 486 34,000  Level FlightAware Transoceanic
Sun 05:00:00 PM 27.2270 -149.2098 238° Southwest 422 486 34,000  Level FlightAware Transoceanic
Sun 05:01:00 PM 27.1652 -149.3221 238° Southwest 422 486 34,000  Level FlightAware Transoceanic
Sun 05:02:00 PM 27.1034 -149.4342 238° Southwest 422 486 34,000  Level FlightAware Transoceanic
Sun 05:03:00 PM 27.0415 -149.5463 238° Southwest 422 486 34,000  Level FlightAware Transoceanic
Sun 05:04:00 PM 26.9795 -149.6582 238° Southwest 422 486 34,000  Level FlightAware Transoceanic
Sun 05:05:00 PM 26.9174 -149.7699 238° Southwest 422 486 34,000  Level FlightAware Transoceanic
Sun 05:06:00 PM 26.8552 -149.8816 238° Southwest 422 486 34,000  Level FlightAware Transoceanic
Sun 05:07:00 PM 26.7930 -149.9931 238° Southwest 422 486 34,000  Level FlightAware Transoceanic
Sun 05:08:00 PM 26.7306 -150.1045 238° Southwest 422 486 34,000  Level FlightAware Transoceanic
Sun 05:09:00 PM 26.6682 -150.2158 238° Southwest 422 486 34,000  Level FlightAware Transoceanic
Sun 05:10:00 PM 26.6057 -150.3269 238° Southwest 422 486 34,000  Level FlightAware Transoceanic
Sun 05:11:00 PM 26.5431 -150.4380 238° Southwest 422 486 34,000  Level FlightAware Transoceanic
Sun 05:12:00 PM 26.4804 -150.5489 238° Southwest 422 486 34,000  Level FlightAware Transoceanic
Sun 05:13:00 PM 26.4176 -150.6597 238° Southwest 422 486 34,000  Level FlightAware Transoceanic
Sun 05:14:00 PM 26.3547 -150.7703 238° Southwest 422 486 34,000  Level FlightAware Transoceanic
Sun 05:15:00 PM 26.2918 -150.8809 238° Southwest 422 486 34,000  Level FlightAware Transoceanic
Sun 05:16:00 PM 26.2288 -150.9913 237° Southwest 422 486 34,000  Level FlightAware Transoceanic
Sun 05:17:00 PM 26.1656 -151.1016 237° Southwest 422 486 34,000  Level FlightAware Transoceanic
Sun 05:18:00 PM 26.1024 -151.2118 237° Southwest 422 486 34,000  Level FlightAware Transoceanic
Sun 05:19:00 PM 26.0392 -151.3219 237° Southwest 422 486 34,000  Level FlightAware Transoceanic
Sun 05:20:00 PM 25.9758 -151.4319 237° Southwest 422 486 34,000  Level FlightAware Transoceanic
Sun 05:21:00 PM 25.9123 -151.5417 237° Southwest 422 486 34,000  Level FlightAware Transoceanic
Sun 05:22:00 PM 25.8488 -151.6514 237° Southwest 422 486 34,000  Level FlightAware Transoceanic
Sun 05:23:00 PM 25.7852 -151.7610 237° Southwest 422 486 34,000  Level FlightAware Transoceanic
Sun 05:24:00 PM 25.7215 -151.8705 237° Southwest 422 486 34,000  Level FlightAware Transoceanic
Sun 05:25:00 PM 25.6577 -151.9799 237° Southwest 422 486 34,000  Level FlightAware Transoceanic
Sun 05:26:00 PM 25.5938 -152.0891 237° Southwest 422 486 34,000  Level FlightAware Transoceanic
Sun 05:27:00 PM 25.5299 -152.1982 237° Southwest 422 486 34,000  Level FlightAware Transoceanic
Sun 05:28:00 PM 25.4659 -152.3073 237° Southwest 422 486 34,000  Level FlightAware Transoceanic
Sun 05:29:00 PM 25.4018 -152.4162 237° Southwest 422 486 34,000  Level FlightAware Transoceanic
Sun 05:30:00 PM 25.3376 -152.5249 237° Southwest 422 486 34,000  Level FlightAware Transoceanic
Sun 05:31:00 PM 25.2733 -152.6336 237° Southwest 422 486 34,000  Level FlightAware Transoceanic
Sun 05:32:00 PM 25.2090 -152.7422 237° Southwest 422 486 34,000  Level FlightAware Transoceanic
Sun 05:33:00 PM 25.1446 -152.8506 237° Southwest 422 486 34,000  Level FlightAware Transoceanic
Sun 05:34:00 PM 25.0801 -152.9589 237° Southwest 422 486 34,000  Level FlightAware Transoceanic
Sun 05:35:00 PM 25.0155 -153.0671 237° Southwest 422 486 34,000  Level FlightAware Transoceanic
Sun 05:36:00 PM 24.9508 -153.1752 237° Southwest 422 486 34,000  Level FlightAware Transoceanic
Sun 05:37:00 PM 24.8861 -153.2832 237° Southwest 422 486 34,000  Level FlightAware Transoceanic
Sun 05:38:00 PM 24.8213 -153.3911 236° Southwest 422 486 34,000  Level FlightAware Transoceanic
Sun 05:39:00 PM 24.7564 -153.4988 236° Southwest 422 486 34,000  Level FlightAware Transoceanic
Sun 05:40:00 PM 24.6914 -153.6065 236° Southwest 422 486 34,000  Level FlightAware Transoceanic
Sun 05:41:00 PM 24.6264 -153.7140 236° Southwest 422 486 34,000  Level FlightAware Transoceanic
Sun 05:42:00 PM 24.5612 -153.8214 236° Southwest 422 486 34,000  Level FlightAware Transoceanic
Sun 05:43:00 PM 24.4960 -153.9287 236° Southwest 422 486 34,000  Level FlightAware Transoceanic
Sun 05:44:00 PM 24.4308 -154.0359 236° Southwest 422 486 34,000  Level FlightAware Transoceanic
Sun 05:45:00 PM 24.3654 -154.1430 236° Southwest 422 486 34,000  Level FlightAware Transoceanic
Sun 05:45:37 PM 24.3500 -154.1333 236° Southwest 440 506 34,000  Level Honolulu Center
Sun 05:46:00 PM 24.3000 -154.2500 236° Southwest 422 486 34,000  Level FlightAware Transoceanic
Sun 05:46:37 PM 24.2833 -154.2333 234° Southwest 420 483 34,000  Level Honolulu Center
Sun 05:47:00 PM 24.2365 -154.3533 236° Southwest 422 486 34,000  Level FlightAware Transoceanic
Sun 05:47:37 PM 24.2167 -154.3333 234° Southwest 420 483 34,000  Level Honolulu Center
Sun 05:48:00 PM 24.1729 -154.4566 236° Southwest 422 486 34,000  Level FlightAware Transoceanic
Sun 05:48:37 PM 24.1500 -154.4333 234° Southwest 420 483 34,000  Level Honolulu Center
Sun 05:49:00 PM 24.1093 -154.5597 236° Southwest 422 486 34,000  Level FlightAware Transoceanic
Sun 05:49:37 PM 24.0833 -154.5500 238° Southwest 420 483 34,000  Level Honolulu Center
Sun 05:50:00 PM 24.0455 -154.6627 236° Southwest 422 486 34,000  Level FlightAware Transoceanic
Sun 05:50:37 PM 24.0167 -154.6500 234° Southwest 430 495 34,000  Level Honolulu Center
Sun 05:51:37 PM 23.9333 -154.7333 222° Southwest 430 495 34,000  Level Honolulu Center
Sun 05:52:37 PM 23.8500 -154.8333 228° Southwest 430 495 34,000  Level Honolulu Center
Sun 05:53:37 PM 23.7833 -154.9000 222° Southwest 420 483 34,000  Level Honolulu Center
Sun 05:54:38 PM 23.6833 -155.0167 227° Southwest 420 483 34,000  Level Honolulu Center
Sun 05:55:38 PM 23.6000 -155.1000 223° Southwest 420 483 34,000  Level Honolulu Center
Sun 05:56:38 PM 23.5167 -155.2000 228° Southwest 420 483 34,000  Level Honolulu Center
Sun 05:57:38 PM 23.4333 -155.2833 223° Southwest 420 483 34,000  Level Honolulu Center
Sun 05:58:38 PM 23.3500 -155.3833 228° Southwest 420 483 34,000  Level Honolulu Center
Sun 05:59:38 PM 23.2667 -155.4667 223° Southwest 410 472 34,000  Level Honolulu Center
Sun 06:00:38 PM 23.2000 -155.5333 223° Southwest 420 483 34,000  Level Honolulu Center
Sun 06:01:39 PM 23.1167 -155.6500 232° Southwest 420 483 34,000  Level Honolulu Center
Sun 06:02:39 PM 23.0333 -155.7333 223° Southwest 420 483 34,000  Level Honolulu Center
Sun 06:03:39 PM 22.9500 -155.8333 228° Southwest 410 472 34,000  Level Honolulu Center
Sun 06:04:39 PM 22.8667 -155.9167 223° Southwest 420 483 34,000  Level Honolulu Center
Sun 06:05:39 PM 22.7833 -156.0167 228° Southwest 410 472 34,000  Level Honolulu Center
Sun 06:06:39 PM 22.7000 -156.1000 223° Southwest 420 483 34,000  Level Honolulu Center
Sun 06:07:39 PM 22.6333 -156.1833 229° Southwest 420 483 34,000  Level Honolulu Center
Sun 06:08:39 PM 22.5500 -156.2833 228° Southwest 420 483 34,000  Level Honolulu Center
Sun 06:09:39 PM 22.4667 -156.3667 223° Southwest 420 483 34,000  Level Honolulu Center
Sun 06:10:40 PM 22.3833 -156.4667 228° Southwest 420 483 34,000  Level Honolulu Center
Sun 06:11:39 PM 22.3000 -156.5500 223° Southwest 420 483 34,000 -300 Level Honolulu Center
Sun 06:12:40 PM 22.2167 -156.6333 223° Southwest 430 495 33,400 -1,884 Descending Honolulu Center
Sun 06:13:40 PM 22.1333 -156.7333 228° Southwest 430 495 30,200 -2,900 Descending Honolulu Center
Sun 06:14:40 PM 22.0500 -156.8167 223° Southwest 430 495 27,600 -2,500 Descending Honolulu Center
Sun 06:15:40 PM 21.9667 -156.9000 223° Southwest 420 483 25,200 -2,450 Descending Honolulu Center
Sun 06:16:40 PM 21.8833 -156.9833 223° Southwest 410 472 22,700 -2,550 Descending Honolulu Center
Sun 06:17:40 PM 21.8167 -157.0667 229° Southwest 400 460 20,100 -2,479 Descending Honolulu Center
Sun 06:18:41 PM 21.7167 -157.1667 223° Southwest 380 437 17,700 -2,300 Descending Honolulu Center
Sun 06:19:40 PM 21.6500 -157.2500 229° Southwest 370 426 15,500 -2,269 Descending Honolulu Center
Sun 06:20:40 PM 21.5833 -157.3167 223° Southwest 360 414 13,200 -2,231 Descending Honolulu Center
Sun 06:21:41 PM 21.5167 -157.4000 229° Southwest 350 403 11,000 -1,587 Descending Honolulu Center
Sun 06:22:41 PM 21.4333 -157.4667 217° Southwest 340 391 10,000 -500 Descending Honolulu Center
Sun 06:23:41 PM 21.3833 -157.5500 237° Southwest 340 391 10,000  Level Honolulu Center
Sun 06:24:41 PM 21.3667 -157.6500 260° West 330 380 10,000 -300 Level Honolulu Center
Sun 06:25:41 PM 21.3333 -157.7167 242° Southwest 280 322 9,400 -600 Descending Honolulu Center

Login

Don't have an account? Register now (free) for customized features, flight alerts, and more!